sensor_id;sensor_type;location;lat;lon;timestamp;temperature;humidity
19646;DHT22;9971;52.446;13.452;2023-04-24T00:02:25;12.70;99.90
19646;DHT22;9971;52.446;13.452;2023-04-24T00:07:28;12.60;99.90
19646;DHT22;9971;52.446;13.452;2023-04-24T00:12:30;12.60;99.90
19646;DHT22;9971;52.446;13.452;2023-04-24T00:17:32;12.60;99.90
19646;DHT22;9971;52.446;13.452;2023-04-24T00:22:35;12.60;99.90
19646;DHT22;9971;52.446;13.452;2023-04-24T00:27:37;12.60;99.90
19646;DHT22;9971;52.446;13.452;2023-04-24T00:32:40;12.50;99.90
19646;DHT22;9971;52.446;13.452;2023-04-24T00:37:42;12.40;99.90
19646;DHT22;9971;52.446;13.452;2023-04-24T00:42:44;12.40;99.90
19646;DHT22;9971;52.446;13.452;2023-04-24T00:47:46;12.30;99.90
19646;DHT22;9971;52.446;13.452;2023-04-24T00:52:49;12.20;99.90
19646;DHT22;9971;52.446;13.452;2023-04-24T00:57:51;12.10;99.90
19646;DHT22;9971;52.446;13.452;2023-04-24T01:02:54;12.10;99.90
19646;DHT22;9971;52.446;13.452;2023-04-24T01:07:56;12.10;99.90
19646;DHT22;9971;52.446;13.452;2023-04-24T01:12:58;12.20;99.90
19646;DHT22;9971;52.446;13.452;2023-04-24T01:18:00;12.30;99.90
19646;DHT22;9971;52.446;13.452;2023-04-24T01:23:03;12.30;99.90
19646;DHT22;9971;52.446;13.452;2023-04-24T01:28:05;12.40;99.90
19646;DHT22;9971;52.446;13.452;2023-04-24T01:33:08;12.50;99.90
19646;DHT22;9971;52.446;13.452;2023-04-24T01:38:12;12.50;99.90
19646;DHT22;9971;52.446;13.452;2023-04-24T01:43:14;12.50;99.90
19646;DHT22;9971;52.446;13.452;2023-04-24T01:48:16;12.50;99.90
19646;DHT22;9971;52.446;13.452;2023-04-24T01:53:19;12.50;99.90
19646;DHT22;9971;52.446;13.452;2023-04-24T01:58:21;12.40;99.90
19646;DHT22;9971;52.446;13.452;2023-04-24T02:03:23;12.40;99.90
19646;DHT22;9971;52.446;13.452;2023-04-24T02:08:26;12.40;99.90
19646;DHT22;9971;52.446;13.452;2023-04-24T02:13:29;12.50;99.90
19646;DHT22;9971;52.446;13.452;2023-04-24T02:18:32;12.50;99.90
19646;DHT22;9971;52.446;13.452;2023-04-24T02:23:34;12.60;99.90
19646;DHT22;9971;52.446;13.452;2023-04-24T02:28:36;12.70;99.90
19646;DHT22;9971;52.446;13.452;2023-04-24T02:33:40;12.70;99.90
19646;DHT22;9971;52.446;13.452;2023-04-24T02:38:44;12.90;99.90
19646;DHT22;9971;52.446;13.452;2023-04-24T02:43:47;13.00;99.90
19646;DHT22;9971;52.446;13.452;2023-04-24T02:48:49;13.10;99.90
19646;DHT22;9971;52.446;13.452;2023-04-24T02:53:52;13.20;99.90
19646;DHT22;9971;52.446;13.452;2023-04-24T02:58:54;13.20;99.90
19646;DHT22;9971;52.446;13.452;2023-04-24T03:03:56;13.20;99.90
19646;DHT22;9971;52.446;13.452;2023-04-24T03:09:00;13.30;99.90
19646;DHT22;9971;52.446;13.452;2023-04-24T03:14:02;13.30;99.90
19646;DHT22;9971;52.446;13.452;2023-04-24T03:19:05;13.30;99.90
19646;DHT22;9971;52.446;13.452;2023-04-24T03:24:08;13.30;99.90
19646;DHT22;9971;52.446;13.452;2023-04-24T03:29:10;13.40;99.90
19646;DHT22;9971;52.446;13.452;2023-04-24T03:34:13;13.40;99.90
19646;DHT22;9971;52.446;13.452;2023-04-24T03:39:15;13.50;99.90
19646;DHT22;9971;52.446;13.452;2023-04-24T03:44:18;13.50;99.90
19646;DHT22;9971;52.446;13.452;2023-04-24T03:49:20;13.50;99.90
19646;DHT22;9971;52.446;13.452;2023-04-24T03:54:23;13.50;99.90
19646;DHT22;9971;52.446;13.452;2023-04-24T03:59:25;13.50;99.90
19646;DHT22;9971;52.446;13.452;2023-04-24T04:04:28;13.50;99.90
19646;DHT22;9971;52.446;13.452;2023-04-24T04:09:31;13.50;99.90
19646;DHT22;9971;52.446;13.452;2023-04-24T04:14:33;13.50;99.90
19646;DHT22;9971;52.446;13.452;2023-04-24T04:19:36;13.50;99.90
19646;DHT22;9971;52.446;13.452;2023-04-24T04:24:40;13.50;99.90
19646;DHT22;9971;52.446;13.452;2023-04-24T04:29:42;13.50;99.90
19646;DHT22;9971;52.446;13.452;2023-04-24T04:34:45;13.60;99.90
19646;DHT22;9971;52.446;13.452;2023-04-24T04:39:48;13.60;99.90
19646;DHT22;9971;52.446;13.452;2023-04-24T04:44:52;13.60;99.90
19646;DHT22;9971;52.446;13.452;2023-04-24T04:49:54;13.70;99.90
19646;DHT22;9971;52.446;13.452;2023-04-24T04:54:57;13.70;99.90
19646;DHT22;9971;52.446;13.452;2023-04-24T05:00:00;13.80;99.90
19646;DHT22;9971;52.446;13.452;2023-04-24T05:05:04;13.70;99.90
19646;DHT22;9971;52.446;13.452;2023-04-24T05:10:06;13.70;99.90
19646;DHT22;9971;52.446;13.452;2023-04-24T05:15:10;13.80;99.90
19646;DHT22;9971;52.446;13.452;2023-04-24T05:20:13;13.80;99.90
19646;DHT22;9971;52.446;13.452;2023-04-24T05:25:17;13.90;99.90
19646;DHT22;9971;52.446;13.452;2023-04-24T05:30:19;13.90;99.90
19646;DHT22;9971;52.446;13.452;2023-04-24T05:35:24;14.00;99.90
19646;DHT22;9971;52.446;13.452;2023-04-24T05:40:26;14.10;99.90
19646;DHT22;9971;52.446;13.452;2023-04-24T05:45:28;14.10;99.90
19646;DHT22;9971;52.446;13.452;2023-04-24T05:50:32;14.20;99.90
19646;DHT22;9971;52.446;13.452;2023-04-24T05:55:34;14.30;99.90
19646;DHT22;9971;52.446;13.452;2023-04-24T06:00:38;14.30;99.90
19646;DHT22;9971;52.446;13.452;2023-04-24T06:05:40;14.40;99.90
19646;DHT22;9971;52.446;13.452;2023-04-24T06:10:43;14.50;99.90
19646;DHT22;9971;52.446;13.452;2023-04-24T06:15:45;14.60;99.90
19646;DHT22;9971;52.446;13.452;2023-04-24T06:20:48;14.60;99.90
19646;DHT22;9971;52.446;13.452;2023-04-24T06:25:50;14.70;99.90
19646;DHT22;9971;52.446;13.452;2023-04-24T06:30:52;14.90;99.90
19646;DHT22;9971;52.446;13.452;2023-04-24T06:35:55;14.90;99.90
19646;DHT22;9971;52.446;13.452;2023-04-24T06:40:58;15.00;99.90
19646;DHT22;9971;52.446;13.452;2023-04-24T06:46:01;15.10;99.90
19646;DHT22;9971;52.446;13.452;2023-04-24T06:51:03;15.20;99.90
19646;DHT22;9971;52.446;13.452;2023-04-24T06:56:07;15.40;99.90
19646;DHT22;9971;52.446;13.452;2023-04-24T07:01:09;15.70;99.90
19646;DHT22;9971;52.446;13.452;2023-04-24T07:06:12;15.90;99.90
19646;DHT22;9971;52.446;13.452;2023-04-24T07:11:14;16.00;99.90
19646;DHT22;9971;52.446;13.452;2023-04-24T07:16:18;16.10;99.90
19646;DHT22;9971;52.446;13.452;2023-04-24T07:21:20;16.20;99.90
19646;DHT22;9971;52.446;13.452;2023-04-24T07:26:22;16.30;99.90
19646;DHT22;9971;52.446;13.452;2023-04-24T07:31:25;16.50;99.90
19646;DHT22;9971;52.446;13.452;2023-04-24T07:36:27;16.60;99.90
19646;DHT22;9971;52.446;13.452;2023-04-24T07:41:30;16.70;99.90
19646;DHT22;9971;52.446;13.452;2023-04-24T07:46:33;16.70;99.90
19646;DHT22;9971;52.446;13.452;2023-04-24T07:51:35;16.70;99.90
19646;DHT22;9971;52.446;13.452;2023-04-24T07:56:41;16.70;99.90
19646;DHT22;9971;52.446;13.452;2023-04-24T08:01:45;16.80;99.90
19646;DHT22;9971;52.446;13.452;2023-04-24T08:06:47;17.00;99.90
19646;DHT22;9971;52.446;13.452;2023-04-24T08:11:49;17.00;99.90
19646;DHT22;9971;52.446;13.452;2023-04-24T08:16:53;17.00;99.90
19646;DHT22;9971;52.446;13.452;2023-04-24T08:21:56;17.10;99.90
19646;DHT22;9971;52.446;13.452;2023-04-24T08:27:00;17.10;99.90
19646;DHT22;9971;52.446;13.452;2023-04-24T08:32:02;17.30;99.90
19646;DHT22;9971;52.446;13.452;2023-04-24T08:37:04;17.60;99.90
19646;DHT22;9971;52.446;13.452;2023-04-24T08:42:08;17.90;99.90
19646;DHT22;9971;52.446;13.452;2023-04-24T08:47:10;18.00;99.90
19646;DHT22;9971;52.446;13.452;2023-04-24T08:52:12;18.40;99.90
19646;DHT22;9971;52.446;13.452;2023-04-24T08:57:14;18.60;99.90
19646;DHT22;9971;52.446;13.452;2023-04-24T09:02:16;18.70;99.90
19646;DHT22;9971;52.446;13.452;2023-04-24T09:07:18;18.90;99.90
19646;DHT22;9971;52.446;13.452;2023-04-24T09:12:21;18.80;99.90
19646;DHT22;9971;52.446;13.452;2023-04-24T09:17:23;18.60;99.90
19646;DHT22;9971;52.446;13.452;2023-04-24T09:22:25;18.60;99.90
19646;DHT22;9971;52.446;13.452;2023-04-24T09:27:28;18.50;99.90
19646;DHT22;9971;52.446;13.452;2023-04-24T09:32:30;18.50;99.90
19646;DHT22;9971;52.446;13.452;2023-04-24T09:37:34;18.50;99.90
19646;DHT22;9971;52.446;13.452;2023-04-24T09:42:34;18.50;99.90
19646;DHT22;9971;52.446;13.452;2023-04-24T09:47:37;18.30;99.90
19646;DHT22;9971;52.446;13.452;2023-04-24T09:52:41;18.30;99.90
19646;DHT22;9971;52.446;13.452;2023-04-24T09:57:50;18.50;99.90
19646;DHT22;9971;52.446;13.452;2023-04-24T10:02:56;18.70;99.90
19646;DHT22;9971;52.446;13.452;2023-04-24T10:08:06;18.70;99.90
19646;DHT22;9971;52.446;13.452;2023-04-24T10:13:08;18.60;99.90
19646;DHT22;9971;52.446;13.452;2023-04-24T10:18:09;18.90;99.90
19646;DHT22;9971;52.446;13.452;2023-04-24T10:23:11;19.00;99.90
19646;DHT22;9971;52.446;13.452;2023-04-24T10:28:13;19.10;99.90
19646;DHT22;9971;52.446;13.452;2023-04-24T10:33:15;19.00;99.90
19646;DHT22;9971;52.446;13.452;2023-04-24T10:38:18;19.10;99.90
19646;DHT22;9971;52.446;13.452;2023-04-24T10:43:19;19.10;99.90
19646;DHT22;9971;52.446;13.452;2023-04-24T10:48:25;19.10;99.90
19646;DHT22;9971;52.446;13.452;2023-04-24T10:53:27;19.10;99.90
19646;DHT22;9971;52.446;13.452;2023-04-24T10:58:42;18.90;99.90
19646;DHT22;9971;52.446;13.452;2023-04-24T11:03:50;18.80;99.90
19646;DHT22;9971;52.446;13.452;2023-04-24T11:08:45;18.80;99.90
19646;DHT22;9971;52.446;13.452;2023-04-24T11:14:04;19.20;99.90
19646;DHT22;9971;52.446;13.452;2023-04-24T11:19:08;19.70;99.90
19646;DHT22;9971;52.446;13.452;2023-04-24T11:24:22;19.80;99.90
19646;DHT22;9971;52.446;13.452;2023-04-24T11:29:23;19.60;99.90
19646;DHT22;9971;52.446;13.452;2023-04-24T11:34:24;19.40;99.90
19646;DHT22;9971;52.446;13.452;2023-04-24T11:39:27;18.60;99.90
19646;DHT22;9971;52.446;13.452;2023-04-24T11:44:29;17.50;99.90
19646;DHT22;9971;52.446;13.452;2023-04-24T11:49:31;17.00;99.90
19646;DHT22;9971;52.446;13.452;2023-04-24T11:54:33;17.20;99.90
19646;DHT22;9971;52.446;13.452;2023-04-24T11:59:36;17.70;99.90
19646;DHT22;9971;52.446;13.452;2023-04-24T12:04:39;18.20;99.90
19646;DHT22;9971;52.446;13.452;2023-04-24T12:09:44;18.40;99.90
19646;DHT22;9971;52.446;13.452;2023-04-24T12:14:53;19.00;99.90
19646;DHT22;9971;52.446;13.452;2023-04-24T12:19:59;19.30;99.90
19646;DHT22;9971;52.446;13.452;2023-04-24T12:25:02;19.20;99.90
19646;DHT22;9971;52.446;13.452;2023-04-24T12:30:04;19.50;99.90
19646;DHT22;9971;52.446;13.452;2023-04-24T12:35:06;19.40;99.90
19646;DHT22;9971;52.446;13.452;2023-04-24T12:40:09;19.50;99.90
19646;DHT22;9971;52.446;13.452;2023-04-24T12:45:11;19.60;99.90
19646;DHT22;9971;52.446;13.452;2023-04-24T12:50:14;19.60;99.90
19646;DHT22;9971;52.446;13.452;2023-04-24T12:55:16;19.70;99.90
19646;DHT22;9971;52.446;13.452;2023-04-24T13:00:18;19.70;99.90
19646;DHT22;9971;52.446;13.452;2023-04-24T13:05:21;19.90;98.60
19646;DHT22;9971;52.446;13.452;2023-04-24T13:10:24;20.40;95.80
19646;DHT22;9971;52.446;13.452;2023-04-24T13:15:26;20.60;93.10
19646;DHT22;9971;52.446;13.452;2023-04-24T13:20:28;20.40;86.80
19646;DHT22;9971;52.446;13.452;2023-04-24T13:25:35;20.70;88.40
19646;DHT22;9971;52.446;13.452;2023-04-24T13:30:33;20.80;82.80
19646;DHT22;9971;52.446;13.452;2023-04-24T13:35:35;21.00;82.90
19646;DHT22;9971;52.446;13.452;2023-04-24T13:40:37;20.70;80.80
19646;DHT22;9971;52.446;13.452;2023-04-24T13:45:40;20.50;79.60
19646;DHT22;9971;52.446;13.452;2023-04-24T13:50:42;20.70;79.80
19646;DHT22;9971;52.446;13.452;2023-04-24T13:55:45;20.70;76.40
19646;DHT22;9971;52.446;13.452;2023-04-24T14:00:47;20.50;78.80
19646;DHT22;9971;52.446;13.452;2023-04-24T14:05:49;20.70;77.80
19646;DHT22;9971;52.446;13.452;2023-04-24T14:10:52;20.60;78.40
19646;DHT22;9971;52.446;13.452;2023-04-24T14:15:55;20.60;79.40
19646;DHT22;9971;52.446;13.452;2023-04-24T14:20:57;20.90;77.20
19646;DHT22;9971;52.446;13.452;2023-04-24T14:25:59;20.70;74.90
19646;DHT22;9971;52.446;13.452;2023-04-24T14:31:01;20.60;74.50
19646;DHT22;9971;52.446;13.452;2023-04-24T14:36:03;20.90;73.70
19646;DHT22;9971;52.446;13.452;2023-04-24T14:41:06;20.80;73.70
19646;DHT22;9971;52.446;13.452;2023-04-24T14:46:08;21.10;74.70
19646;DHT22;9971;52.446;13.452;2023-04-24T14:51:11;21.10;74.30
19646;DHT22;9971;52.446;13.452;2023-04-24T14:56:13;21.30;73.70
19646;DHT22;9971;52.446;13.452;2023-04-24T15:01:15;21.40;72.20
19646;DHT22;9971;52.446;13.452;2023-04-24T15:06:18;21.10;71.40
19646;DHT22;9971;52.446;13.452;2023-04-24T15:11:20;20.60;73.30
19646;DHT22;9971;52.446;13.452;2023-04-24T15:16:23;20.20;75.60
19646;DHT22;9971;52.446;13.452;2023-04-24T15:21:24;20.00;77.70
19646;DHT22;9971;52.446;13.452;2023-04-24T15:26:27;19.80;76.90
19646;DHT22;9971;52.446;13.452;2023-04-24T15:31:29;19.90;75.70
19646;DHT22;9971;52.446;13.452;2023-04-24T15:36:31;19.80;77.40
19646;DHT22;9971;52.446;13.452;2023-04-24T15:41:34;19.40;77.50
19646;DHT22;9971;52.446;13.452;2023-04-24T15:46:36;19.20;78.30
19646;DHT22;9971;52.446;13.452;2023-04-24T15:51:39;18.90;78.90
19646;DHT22;9971;52.446;13.452;2023-04-24T15:56:41;18.70;80.10
19646;DHT22;9971;52.446;13.452;2023-04-24T16:01:44;18.60;80.80
19646;DHT22;9971;52.446;13.452;2023-04-24T16:06:46;18.40;81.50
19646;DHT22;9971;52.446;13.452;2023-04-24T16:11:49;18.40;82.70
19646;DHT22;9971;52.446;13.452;2023-04-24T16:16:51;18.30;82.60
19646;DHT22;9971;52.446;13.452;2023-04-24T16:21:53;18.10;82.30
19646;DHT22;9971;52.446;13.452;2023-04-24T16:26:56;18.00;84.70
19646;DHT22;9971;52.446;13.452;2023-04-24T16:31:58;17.90;84.90
19646;DHT22;9971;52.446;13.452;2023-04-24T16:37:00;17.70;84.90
19646;DHT22;9971;52.446;13.452;2023-04-24T16:42:03;17.60;86.60
19646;DHT22;9971;52.446;13.452;2023-04-24T16:47:06;17.60;88.00
19646;DHT22;9971;52.446;13.452;2023-04-24T16:52:08;17.50;89.20
19646;DHT22;9971;52.446;13.452;2023-04-24T16:57:10;17.40;90.50
19646;DHT22;9971;52.446;13.452;2023-04-24T17:02:12;17.20;92.20
19646;DHT22;9971;52.446;13.452;2023-04-24T17:07:15;16.80;93.60
19646;DHT22;9971;52.446;13.452;2023-04-24T17:12:17;16.50;95.20
19646;DHT22;9971;52.446;13.452;2023-04-24T17:17:19;16.20;98.10
19646;DHT22;9971;52.446;13.452;2023-04-24T17:22:22;16.10;99.50
19646;DHT22;9971;52.446;13.452;2023-04-24T17:27:24;15.90;99.90
19646;DHT22;9971;52.446;13.452;2023-04-24T17:32:27;15.80;99.90
19646;DHT22;9971;52.446;13.452;2023-04-24T17:37:29;15.60;99.90
19646;DHT22;9971;52.446;13.452;2023-04-24T17:42:31;15.50;99.90
19646;DHT22;9971;52.446;13.452;2023-04-24T17:47:34;15.40;99.90
19646;DHT22;9971;52.446;13.452;2023-04-24T17:52:37;15.30;99.90
19646;DHT22;9971;52.446;13.452;2023-04-24T17:57:40;15.20;99.90
19646;DHT22;9971;52.446;13.452;2023-04-24T18:02:42;15.10;99.90
19646;DHT22;9971;52.446;13.452;2023-04-24T18:07:45;15.00;99.90
19646;DHT22;9971;52.446;13.452;2023-04-24T18:12:47;14.90;99.90
19646;DHT22;9971;52.446;13.452;2023-04-24T18:17:49;14.90;99.90
19646;DHT22;9971;52.446;13.452;2023-04-24T18:22:52;14.70;99.90
19646;DHT22;9971;52.446;13.452;2023-04-24T18:27:54;14.50;99.90
19646;DHT22;9971;52.446;13.452;2023-04-24T18:32:57;14.50;99.90
19646;DHT22;9971;52.446;13.452;2023-04-24T18:38:00;14.40;99.90
19646;DHT22;9971;52.446;13.452;2023-04-24T18:43:02;14.30;99.90
19646;DHT22;9971;52.446;13.452;2023-04-24T18:48:05;14.20;99.90
19646;DHT22;9971;52.446;13.452;2023-04-24T18:53:07;14.00;99.90
19646;DHT22;9971;52.446;13.452;2023-04-24T18:58:09;13.90;99.90
19646;DHT22;9971;52.446;13.452;2023-04-24T19:03:12;13.70;99.90
19646;DHT22;9971;52.446;13.452;2023-04-24T19:08:14;13.60;99.90
19646;DHT22;9971;52.446;13.452;2023-04-24T19:13:17;13.40;99.90
19646;DHT22;9971;52.446;13.452;2023-04-24T19:18:19;13.40;99.90
19646;DHT22;9971;52.446;13.452;2023-04-24T19:23:22;13.30;99.90
19646;DHT22;9971;52.446;13.452;2023-04-24T19:28:24;13.20;99.90
19646;DHT22;9971;52.446;13.452;2023-04-24T19:33:27;13.10;99.90
19646;DHT22;9971;52.446;13.452;2023-04-24T19:38:29;13.00;99.90
19646;DHT22;9971;52.446;13.452;2023-04-24T19:43:31;12.90;99.90
19646;DHT22;9971;52.446;13.452;2023-04-24T19:48:34;12.90;99.90
19646;DHT22;9971;52.446;13.452;2023-04-24T19:53:36;12.90;99.90
19646;DHT22;9971;52.446;13.452;2023-04-24T19:58:38;12.90;99.90
19646;DHT22;9971;52.446;13.452;2023-04-24T20:03:41;12.80;99.90
19646;DHT22;9971;52.446;13.452;2023-04-24T20:08:43;12.80;99.90
19646;DHT22;9971;52.446;13.452;2023-04-24T20:13:46;12.70;99.90
19646;DHT22;9971;52.446;13.452;2023-04-24T20:18:48;12.60;99.90
19646;DHT22;9971;52.446;13.452;2023-04-24T20:23:52;12.60;99.90
19646;DHT22;9971;52.446;13.452;2023-04-24T20:28:55;12.50;99.90
19646;DHT22;9971;52.446;13.452;2023-04-24T20:33:57;12.40;99.90
19646;DHT22;9971;52.446;13.452;2023-04-24T20:38:59;12.40;99.90
19646;DHT22;9971;52.446;13.452;2023-04-24T20:44:01;12.40;99.90
19646;DHT22;9971;52.446;13.452;2023-04-24T20:49:03;12.30;99.90
19646;DHT22;9971;52.446;13.452;2023-04-24T20:54:06;12.20;99.90
19646;DHT22;9971;52.446;13.452;2023-04-24T20:59:08;12.20;99.90
19646;DHT22;9971;52.446;13.452;2023-04-24T21:04:11;12.10;99.90
19646;DHT22;9971;52.446;13.452;2023-04-24T21:09:13;12.00;99.90
19646;DHT22;9971;52.446;13.452;2023-04-24T21:14:16;12.00;99.90
19646;DHT22;9971;52.446;13.452;2023-04-24T21:19:18;12.00;99.90
19646;DHT22;9971;52.446;13.452;2023-04-24T21:24:22;11.90;99.90
19646;DHT22;9971;52.446;13.452;2023-04-24T21:29:24;11.80;99.90
19646;DHT22;9971;52.446;13.452;2023-04-24T21:34:27;11.80;99.90
19646;DHT22;9971;52.446;13.452;2023-04-24T21:39:29;11.80;99.90
19646;DHT22;9971;52.446;13.452;2023-04-24T21:44:32;11.70;99.90
19646;DHT22;9971;52.446;13.452;2023-04-24T21:49:34;11.80;99.90
19646;DHT22;9971;52.446;13.452;2023-04-24T21:54:37;11.80;99.90
19646;DHT22;9971;52.446;13.452;2023-04-24T21:59:39;11.80;99.90
19646;DHT22;9971;52.446;13.452;2023-04-24T22:04:42;11.80;99.90
19646;DHT22;9971;52.446;13.452;2023-04-24T22:09:45;11.80;99.90
19646;DHT22;9971;52.446;13.452;2023-04-24T22:14:48;11.80;99.90
19646;DHT22;9971;52.446;13.452;2023-04-24T22:19:50;11.80;99.90
19646;DHT22;9971;52.446;13.452;2023-04-24T22:24:52;11.80;99.90
19646;DHT22;9971;52.446;13.452;2023-04-24T22:29:54;11.70;99.90
19646;DHT22;9971;52.446;13.452;2023-04-24T22:34:57;11.70;99.90
19646;DHT22;9971;52.446;13.452;2023-04-24T22:39:59;11.60;99.90
19646;DHT22;9971;52.446;13.452;2023-04-24T22:45:01;11.60;99.90
19646;DHT22;9971;52.446;13.452;2023-04-24T22:50:04;11.50;99.90
19646;DHT22;9971;52.446;13.452;2023-04-24T22:55:07;11.50;99.90
19646;DHT22;9971;52.446;13.452;2023-04-24T23:00:10;11.50;99.90
19646;DHT22;9971;52.446;13.452;2023-04-24T23:05:12;11.50;99.90
19646;DHT22;9971;52.446;13.452;2023-04-24T23:10:15;11.50;99.90
19646;DHT22;9971;52.446;13.452;2023-04-24T23:15:17;11.50;99.90
19646;DHT22;9971;52.446;13.452;2023-04-24T23:20:20;11.60;99.90
19646;DHT22;9971;52.446;13.452;2023-04-24T23:25:21;11.60;99.90
19646;DHT22;9971;52.446;13.452;2023-04-24T23:30:24;11.60;99.90
19646;DHT22;9971;52.446;13.452;2023-04-24T23:35:26;11.60;99.90
19646;DHT22;9971;52.446;13.452;2023-04-24T23:40:29;11.70;99.90
19646;DHT22;9971;52.446;13.452;2023-04-24T23:45:31;11.70;99.90
19646;DHT22;9971;52.446;13.452;2023-04-24T23:50:34;11.60;99.90
19646;DHT22;9971;52.446;13.452;2023-04-24T23:55:36;11.50;99.90
